sensor_id;sensor_type;location;lat;lon;timestamp;temperature;humidity
22779;DHT22;11556;51.194;3.800;2022-08-03T00:00:40;20.80;99.90
22779;DHT22;11556;51.194;3.800;2022-08-03T00:03:05;20.70;99.90
22779;DHT22;11556;51.194;3.800;2022-08-03T00:05:31;20.70;99.90
22779;DHT22;11556;51.194;3.800;2022-08-03T00:08:00;20.60;99.90
22779;DHT22;11556;51.194;3.800;2022-08-03T00:10:25;20.70;99.90
22779;DHT22;11556;51.194;3.800;2022-08-03T00:12:52;20.60;99.90
22779;DHT22;11556;51.194;3.800;2022-08-03T00:15:17;20.60;99.90
22779;DHT22;11556;51.194;3.800;2022-08-03T00:17:44;20.60;99.90
22779;DHT22;11556;51.194;3.800;2022-08-03T00:20:10;20.60;99.90
22779;DHT22;11556;51.194;3.800;2022-08-03T00:22:35;20.60;99.90
22779;DHT22;11556;51.194;3.800;2022-08-03T00:25:01;20.60;99.90
22779;DHT22;11556;51.194;3.800;2022-08-03T00:27:27;20.60;99.90
22779;DHT22;11556;51.194;3.800;2022-08-03T00:29:52;20.50;99.90
22779;DHT22;11556;51.194;3.800;2022-08-03T00:32:18;20.50;99.90
22779;DHT22;11556;51.194;3.800;2022-08-03T00:34:43;20.60;99.90
22779;DHT22;11556;51.194;3.800;2022-08-03T00:37:09;20.60;99.90
22779;DHT22;11556;51.194;3.800;2022-08-03T00:39:34;20.60;99.90
22779;DHT22;11556;51.194;3.800;2022-08-03T00:42:04;20.60;99.90
22779;DHT22;11556;51.194;3.800;2022-08-03T00:44:30;20.60;99.90
22779;DHT22;11556;51.194;3.800;2022-08-03T00:46:56;20.60;99.90
22779;DHT22;11556;51.194;3.800;2022-08-03T00:49:22;20.60;99.90
22779;DHT22;11556;51.194;3.800;2022-08-03T00:51:48;20.50;99.90
22779;DHT22;11556;51.194;3.800;2022-08-03T00:54:14;20.60;99.90
22779;DHT22;11556;51.194;3.800;2022-08-03T00:56:41;20.60;99.90
22779;DHT22;11556;51.194;3.800;2022-08-03T00:59:09;20.60;99.90
22779;DHT22;11556;51.194;3.800;2022-08-03T01:01:35;20.60;99.90
22779;DHT22;11556;51.194;3.800;2022-08-03T01:04:00;20.60;99.90
22779;DHT22;11556;51.194;3.800;2022-08-03T01:14:24;20.50;99.90
22779;DHT22;11556;51.194;3.800;2022-08-03T01:16:58;20.40;99.90
22779;DHT22;11556;51.194;3.800;2022-08-03T01:19:45;20.40;99.90
22779;DHT22;11556;51.194;3.800;2022-08-03T01:25:33;20.50;99.90
22779;DHT22;11556;51.194;3.800;2022-08-03T01:28:24;20.40;99.90
22779;DHT22;11556;51.194;3.800;2022-08-03T01:30:55;20.30;99.90
22779;DHT22;11556;51.194;3.800;2022-08-03T01:33:27;20.30;99.90
22779;DHT22;11556;51.194;3.800;2022-08-03T01:36:02;20.20;99.90
22779;DHT22;11556;51.194;3.800;2022-08-03T01:38:33;20.30;99.90
22779;DHT22;11556;51.194;3.800;2022-08-03T01:41:21;20.20;99.90
22779;DHT22;11556;51.194;3.800;2022-08-03T01:43:49;20.20;99.90
22779;DHT22;11556;51.194;3.800;2022-08-03T01:46:17;20.20;99.90
22779;DHT22;11556;51.194;3.800;2022-08-03T01:48:46;20.20;99.90
22779;DHT22;11556;51.194;3.800;2022-08-03T01:51:14;20.20;99.90
22779;DHT22;11556;51.194;3.800;2022-08-03T01:53:41;20.20;99.90
22779;DHT22;11556;51.194;3.800;2022-08-03T01:56:08;20.10;99.90
22779;DHT22;11556;51.194;3.800;2022-08-03T01:58:35;20.10;99.90
22779;DHT22;11556;51.194;3.800;2022-08-03T02:01:02;20.20;99.90
22779;DHT22;11556;51.194;3.800;2022-08-03T02:03:31;20.10;99.90
22779;DHT22;11556;51.194;3.800;2022-08-03T02:05:59;20.10;99.90
22779;DHT22;11556;51.194;3.800;2022-08-03T02:08:26;20.10;99.90
22779;DHT22;11556;51.194;3.800;2022-08-03T02:10:54;20.10;99.90
22779;DHT22;11556;51.194;3.800;2022-08-03T02:13:22;20.10;99.90
22779;DHT22;11556;51.194;3.800;2022-08-03T02:15:49;20.10;99.90
22779;DHT22;11556;51.194;3.800;2022-08-03T02:18:17;20.00;99.90
22779;DHT22;11556;51.194;3.800;2022-08-03T02:20:44;20.10;99.90
22779;DHT22;11556;51.194;3.800;2022-08-03T02:23:10;20.10;99.90
22779;DHT22;11556;51.194;3.800;2022-08-03T02:25:44;20.20;99.90
22779;DHT22;11556;51.194;3.800;2022-08-03T02:28:16;20.10;99.90
22779;DHT22;11556;51.194;3.800;2022-08-03T02:30:45;20.20;99.90
22779;DHT22;11556;51.194;3.800;2022-08-03T02:33:15;20.20;99.90
22779;DHT22;11556;51.194;3.800;2022-08-03T02:35:43;20.20;99.90
22779;DHT22;11556;51.194;3.800;2022-08-03T02:38:10;20.10;99.90
22779;DHT22;11556;51.194;3.800;2022-08-03T02:40:38;20.20;99.90
22779;DHT22;11556;51.194;3.800;2022-08-03T02:43:09;20.20;99.90
22779;DHT22;11556;51.194;3.800;2022-08-03T02:45:41;20.10;99.90
22779;DHT22;11556;51.194;3.800;2022-08-03T02:48:10;20.10;99.90
22779;DHT22;11556;51.194;3.800;2022-08-03T02:50:37;20.00;99.90
22779;DHT22;11556;51.194;3.800;2022-08-03T02:53:04;20.00;99.90
22779;DHT22;11556;51.194;3.800;2022-08-03T02:55:34;20.00;99.90
22779;DHT22;11556;51.194;3.800;2022-08-03T02:58:00;20.00;99.90
22779;DHT22;11556;51.194;3.800;2022-08-03T03:00:27;20.00;99.90
22779;DHT22;11556;51.194;3.800;2022-08-03T03:02:56;20.00;99.90
22779;DHT22;11556;51.194;3.800;2022-08-03T03:05:22;20.00;99.90
22779;DHT22;11556;51.194;3.800;2022-08-03T03:07:48;20.00;99.90
22779;DHT22;11556;51.194;3.800;2022-08-03T03:10:14;20.00;99.90
22779;DHT22;11556;51.194;3.800;2022-08-03T03:12:41;19.90;99.90
22779;DHT22;11556;51.194;3.800;2022-08-03T03:15:07;19.90;99.90
22779;DHT22;11556;51.194;3.800;2022-08-03T03:17:34;19.90;99.90
22779;DHT22;11556;51.194;3.800;2022-08-03T03:20:03;19.90;99.90
22779;DHT22;11556;51.194;3.800;2022-08-03T03:22:30;19.90;99.90
22779;DHT22;11556;51.194;3.800;2022-08-03T03:24:57;19.90;99.90
22779;DHT22;11556;51.194;3.800;2022-08-03T03:27:23;19.90;99.90
22779;DHT22;11556;51.194;3.800;2022-08-03T03:29:48;19.90;99.90
22779;DHT22;11556;51.194;3.800;2022-08-03T03:32:14;19.90;99.90
22779;DHT22;11556;51.194;3.800;2022-08-03T03:34:41;19.80;99.90
22779;DHT22;11556;51.194;3.800;2022-08-03T03:37:06;19.80;99.90
22779;DHT22;11556;51.194;3.800;2022-08-03T03:39:32;19.70;99.90
22779;DHT22;11556;51.194;3.800;2022-08-03T03:41:59;19.80;99.90
22779;DHT22;11556;51.194;3.800;2022-08-03T03:44:27;19.80;99.90
22779;DHT22;11556;51.194;3.800;2022-08-03T03:46:53;19.70;99.90
22779;DHT22;11556;51.194;3.800;2022-08-03T03:49:19;19.60;99.90
22779;DHT22;11556;51.194;3.800;2022-08-03T03:51:45;19.60;99.90
22779;DHT22;11556;51.194;3.800;2022-08-03T03:54:11;19.60;99.90
22779;DHT22;11556;51.194;3.800;2022-08-03T03:56:37;19.50;99.90
22779;DHT22;11556;51.194;3.800;2022-08-03T03:59:03;19.50;99.90
22779;DHT22;11556;51.194;3.800;2022-08-03T04:01:29;19.50;99.90
22779;DHT22;11556;51.194;3.800;2022-08-03T04:03:55;19.60;99.90
22779;DHT22;11556;51.194;3.800;2022-08-03T04:06:20;19.60;99.90
22779;DHT22;11556;51.194;3.800;2022-08-03T04:09:06;19.60;99.90
22779;DHT22;11556;51.194;3.800;2022-08-03T04:11:52;19.50;99.90
22779;DHT22;11556;51.194;3.800;2022-08-03T04:14:22;19.50;99.90
22779;DHT22;11556;51.194;3.800;2022-08-03T04:17:00;19.60;99.90
22779;DHT22;11556;51.194;3.800;2022-08-03T04:19:29;19.60;99.90
22779;DHT22;11556;51.194;3.800;2022-08-03T04:21:59;19.60;99.90
22779;DHT22;11556;51.194;3.800;2022-08-03T04:24:45;19.60;99.90
22779;DHT22;11556;51.194;3.800;2022-08-03T04:27:14;19.60;99.90
22779;DHT22;11556;51.194;3.800;2022-08-03T04:29:44;19.60;99.90
22779;DHT22;11556;51.194;3.800;2022-08-03T04:32:11;19.70;99.90
22779;DHT22;11556;51.194;3.800;2022-08-03T04:34:37;19.80;99.90
22779;DHT22;11556;51.194;3.800;2022-08-03T04:37:13;19.80;99.90
22779;DHT22;11556;51.194;3.800;2022-08-03T04:39:41;19.80;99.90
22779;DHT22;11556;51.194;3.800;2022-08-03T04:42:08;19.90;99.90
22779;DHT22;11556;51.194;3.800;2022-08-03T04:44:39;20.00;99.90
22779;DHT22;11556;51.194;3.800;2022-08-03T04:47:05;20.00;99.90
22779;DHT22;11556;51.194;3.800;2022-08-03T04:49:31;20.00;99.90
22779;DHT22;11556;51.194;3.800;2022-08-03T04:51:57;20.00;99.90
22779;DHT22;11556;51.194;3.800;2022-08-03T04:54:23;20.20;99.90
22779;DHT22;11556;51.194;3.800;2022-08-03T04:56:49;20.30;99.90
22779;DHT22;11556;51.194;3.800;2022-08-03T04:59:14;20.30;99.90
22779;DHT22;11556;51.194;3.800;2022-08-03T05:01:42;20.30;99.90
22779;DHT22;11556;51.194;3.800;2022-08-03T05:04:08;20.30;99.90
22779;DHT22;11556;51.194;3.800;2022-08-03T05:06:34;20.30;99.90
22779;DHT22;11556;51.194;3.800;2022-08-03T05:08:59;20.30;99.90
22779;DHT22;11556;51.194;3.800;2022-08-03T05:11:25;20.40;99.90
22779;DHT22;11556;51.194;3.800;2022-08-03T05:13:51;20.40;99.90
22779;DHT22;11556;51.194;3.800;2022-08-03T05:16:16;20.50;99.90
22779;DHT22;11556;51.194;3.800;2022-08-03T05:18:42;20.70;99.90
22779;DHT22;11556;51.194;3.800;2022-08-03T05:21:09;20.90;99.90
22779;DHT22;11556;51.194;3.800;2022-08-03T05:23:35;21.50;99.90
22779;DHT22;11556;51.194;3.800;2022-08-03T05:26:02;22.50;99.90
22779;DHT22;11556;51.194;3.800;2022-08-03T05:28:28;23.80;99.90
22779;DHT22;11556;51.194;3.800;2022-08-03T05:30:53;24.50;99.90
22779;DHT22;11556;51.194;3.800;2022-08-03T05:33:19;25.30;99.90
22779;DHT22;11556;51.194;3.800;2022-08-03T05:35:45;26.10;99.90
22779;DHT22;11556;51.194;3.800;2022-08-03T05:38:10;26.60;99.90
22779;DHT22;11556;51.194;3.800;2022-08-03T05:40:36;26.80;99.90
22779;DHT22;11556;51.194;3.800;2022-08-03T05:43:02;27.50;99.90
22779;DHT22;11556;51.194;3.800;2022-08-03T05:45:27;27.80;99.90
22779;DHT22;11556;51.194;3.800;2022-08-03T05:47:53;28.10;99.90
22779;DHT22;11556;51.194;3.800;2022-08-03T05:50:19;29.10;99.90
22779;DHT22;11556;51.194;3.800;2022-08-03T05:52:45;29.90;98.30
22779;DHT22;11556;51.194;3.800;2022-08-03T05:55:11;30.40;96.30
22779;DHT22;11556;51.194;3.800;2022-08-03T05:57:38;31.10;94.50
22779;DHT22;11556;51.194;3.800;2022-08-03T06:00:08;30.80;93.00
22779;DHT22;11556;51.194;3.800;2022-08-03T06:02:34;30.80;93.40
22779;DHT22;11556;51.194;3.800;2022-08-03T06:05:00;31.00;92.10
22779;DHT22;11556;51.194;3.800;2022-08-03T06:07:26;30.70;92.40
22779;DHT22;11556;51.194;3.800;2022-08-03T06:09:52;31.30;91.40
22779;DHT22;11556;51.194;3.800;2022-08-03T06:12:18;31.60;90.70
22779;DHT22;11556;51.194;3.800;2022-08-03T06:14:44;32.10;88.70
22779;DHT22;11556;51.194;3.800;2022-08-03T06:17:10;32.30;87.20
22779;DHT22;11556;51.194;3.800;2022-08-03T06:19:36;33.00;84.30
22779;DHT22;11556;51.194;3.800;2022-08-03T06:22:02;33.30;82.30
22779;DHT22;11556;51.194;3.800;2022-08-03T06:24:27;33.30;79.80
22779;DHT22;11556;51.194;3.800;2022-08-03T06:26:53;32.40;81.40
22779;DHT22;11556;51.194;3.800;2022-08-03T06:29:19;32.40;82.50
22779;DHT22;11556;51.194;3.800;2022-08-03T06:31:44;32.90;81.60
22779;DHT22;11556;51.194;3.800;2022-08-03T06:34:10;32.60;79.80
22779;DHT22;11556;51.194;3.800;2022-08-03T06:36:35;33.10;79.30
22779;DHT22;11556;51.194;3.800;2022-08-03T06:39:02;32.80;79.30
22779;DHT22;11556;51.194;3.800;2022-08-03T06:41:28;32.90;78.90
22779;DHT22;11556;51.194;3.800;2022-08-03T06:43:53;33.20;78.00
22779;DHT22;11556;51.194;3.800;2022-08-03T06:46:19;33.30;77.20
22779;DHT22;11556;51.194;3.800;2022-08-03T06:48:45;34.00;75.20
22779;DHT22;11556;51.194;3.800;2022-08-03T06:51:11;33.80;74.90
22779;DHT22;11556;51.194;3.800;2022-08-03T06:53:37;33.30;75.40
22779;DHT22;11556;51.194;3.800;2022-08-03T06:56:06;33.20;76.30
22779;DHT22;11556;51.194;3.800;2022-08-03T06:58:32;33.70;75.50
22779;DHT22;11556;51.194;3.800;2022-08-03T07:00:58;33.90;73.90
22779;DHT22;11556;51.194;3.800;2022-08-03T07:03:24;33.60;74.80
22779;DHT22;11556;51.194;3.800;2022-08-03T07:05:49;33.50;74.70
22779;DHT22;11556;51.194;3.800;2022-08-03T07:08:16;32.80;76.70
22779;DHT22;11556;51.194;3.800;2022-08-03T07:10:42;32.40;78.00
22779;DHT22;11556;51.194;3.800;2022-08-03T07:13:08;32.50;78.30
22779;DHT22;11556;51.194;3.800;2022-08-03T07:15:34;33.00;77.40
22779;DHT22;11556;51.194;3.800;2022-08-03T07:18:00;33.00;76.00
22779;DHT22;11556;51.194;3.800;2022-08-03T07:20:25;32.40;78.20
22779;DHT22;11556;51.194;3.800;2022-08-03T07:22:51;33.00;76.90
22779;DHT22;11556;51.194;3.800;2022-08-03T07:25:17;33.00;77.40
22779;DHT22;11556;51.194;3.800;2022-08-03T07:27:43;32.60;76.90
22779;DHT22;11556;51.194;3.800;2022-08-03T07:30:09;30.90;82.50
22779;DHT22;11556;51.194;3.800;2022-08-03T07:32:35;29.80;87.50
22779;DHT22;11556;51.194;3.800;2022-08-03T07:35:02;29.50;89.70
22779;DHT22;11556;51.194;3.800;2022-08-03T07:37:28;29.00;91.10
22779;DHT22;11556;51.194;3.800;2022-08-03T07:39:54;28.80;92.00
22779;DHT22;11556;51.194;3.800;2022-08-03T07:42:20;28.80;92.30
22779;DHT22;11556;51.194;3.800;2022-08-03T07:44:45;28.30;93.20
22779;DHT22;11556;51.194;3.800;2022-08-03T07:47:11;28.60;93.60
22779;DHT22;11556;51.194;3.800;2022-08-03T07:49:40;29.40;92.50
22779;DHT22;11556;51.194;3.800;2022-08-03T07:52:06;30.30;90.70
22779;DHT22;11556;51.194;3.800;2022-08-03T07:54:50;31.70;86.10
22779;DHT22;11556;51.194;3.800;2022-08-03T07:57:16;33.10;80.30
22779;DHT22;11556;51.194;3.800;2022-08-03T07:59:41;34.40;75.90
22779;DHT22;11556;51.194;3.800;2022-08-03T08:02:07;34.50;74.00
22779;DHT22;11556;51.194;3.800;2022-08-03T08:04:33;34.70;73.00
22779;DHT22;11556;51.194;3.800;2022-08-03T08:06:58;35.20;71.00
22779;DHT22;11556;51.194;3.800;2022-08-03T08:09:24;34.70;71.50
22779;DHT22;11556;51.194;3.800;2022-08-03T08:11:49;34.10;73.00
22779;DHT22;11556;51.194;3.800;2022-08-03T08:14:15;34.60;71.40
22779;DHT22;11556;51.194;3.800;2022-08-03T08:16:41;34.70;70.90
22779;DHT22;11556;51.194;3.800;2022-08-03T08:19:06;34.10;71.50
22779;DHT22;11556;51.194;3.800;2022-08-03T08:21:32;34.60;71.20
22779;DHT22;11556;51.194;3.800;2022-08-03T08:23:58;35.00;69.80
22779;DHT22;11556;51.194;3.800;2022-08-03T08:26:24;35.50;68.30
22779;DHT22;11556;51.194;3.800;2022-08-03T08:28:50;34.90;69.20
22779;DHT22;11556;51.194;3.800;2022-08-03T08:31:16;35.00;69.00
22779;DHT22;11556;51.194;3.800;2022-08-03T08:33:42;35.50;68.20
22779;DHT22;11556;51.194;3.800;2022-08-03T08:36:08;36.20;65.40
22779;DHT22;11556;51.194;3.800;2022-08-03T08:38:34;35.60;66.20
22779;DHT22;11556;51.194;3.800;2022-08-03T08:41:00;35.90;65.60
22779;DHT22;11556;51.194;3.800;2022-08-03T08:43:26;35.50;66.30
22779;DHT22;11556;51.194;3.800;2022-08-03T08:45:53;34.80;68.50
22779;DHT22;11556;51.194;3.800;2022-08-03T08:48:23;35.20;67.40
22779;DHT22;11556;51.194;3.800;2022-08-03T08:50:54;35.50;66.30
22779;DHT22;11556;51.194;3.800;2022-08-03T08:53:20;35.80;64.90
22779;DHT22;11556;51.194;3.800;2022-08-03T08:55:47;35.70;65.10
22779;DHT22;11556;51.194;3.800;2022-08-03T08:58:15;36.50;64.00
22779;DHT22;11556;51.194;3.800;2022-08-03T09:00:43;37.30;62.50
22779;DHT22;11556;51.194;3.800;2022-08-03T09:03:10;37.40;61.80
22779;DHT22;11556;51.194;3.800;2022-08-03T09:05:36;37.60;60.40
22779;DHT22;11556;51.194;3.800;2022-08-03T09:08:04;37.40;60.80
22779;DHT22;11556;51.194;3.800;2022-08-03T09:10:30;37.90;59.80
22779;DHT22;11556;51.194;3.800;2022-08-03T09:12:56;38.20;59.10
22779;DHT22;11556;51.194;3.800;2022-08-03T09:15:27;38.00;58.40
22779;DHT22;11556;51.194;3.800;2022-08-03T09:17:55;38.20;58.40
22779;DHT22;11556;51.194;3.800;2022-08-03T09:20:22;38.20;57.40
22779;DHT22;11556;51.194;3.800;2022-08-03T09:23:04;38.10;57.00
22779;DHT22;11556;51.194;3.800;2022-08-03T09:25:40;37.90;57.30
22779;DHT22;11556;51.194;3.800;2022-08-03T09:28:11;38.20;56.90
22779;DHT22;11556;51.194;3.800;2022-08-03T09:30:59;38.20;57.40
22779;DHT22;11556;51.194;3.800;2022-08-03T09:33:23;38.50;56.40
22779;DHT22;11556;51.194;3.800;2022-08-03T09:35:49;38.10;56.90
22779;DHT22;11556;51.194;3.800;2022-08-03T09:38:16;37.90;57.00
22779;DHT22;11556;51.194;3.800;2022-08-03T09:40:43;37.80;55.80
22779;DHT22;11556;51.194;3.800;2022-08-03T09:43:09;38.20;56.00
22779;DHT22;11556;51.194;3.800;2022-08-03T09:45:36;38.40;55.00
22779;DHT22;11556;51.194;3.800;2022-08-03T09:50:53;39.20;53.90
22779;DHT22;11556;51.194;3.800;2022-08-03T09:53:19;38.90;53.70
22779;DHT22;11556;51.194;3.800;2022-08-03T09:55:52;39.30;53.70
22779;DHT22;11556;51.194;3.800;2022-08-03T09:58:20;40.30;52.20
22779;DHT22;11556;51.194;3.800;2022-08-03T10:00:53;39.90;52.60
22779;DHT22;11556;51.194;3.800;2022-08-03T10:03:20;40.60;50.80
22779;DHT22;11556;51.194;3.800;2022-08-03T10:05:45;40.50;50.30
22779;DHT22;11556;51.194;3.800;2022-08-03T10:08:16;40.20;50.70
22779;DHT22;11556;51.194;3.800;2022-08-03T10:10:43;40.20;51.60
22779;DHT22;11556;51.194;3.800;2022-08-03T10:13:18;40.20;50.80
22779;DHT22;11556;51.194;3.800;2022-08-03T10:15:45;40.10;50.70
22779;DHT22;11556;51.194;3.800;2022-08-03T10:18:11;40.00;51.40
22779;DHT22;11556;51.194;3.800;2022-08-03T10:20:45;40.10;52.30
22779;DHT22;11556;51.194;3.800;2022-08-03T10:23:13;40.60;49.80
22779;DHT22;11556;51.194;3.800;2022-08-03T10:25:43;41.20;49.60
22779;DHT22;11556;51.194;3.800;2022-08-03T10:28:15;40.10;50.60
22779;DHT22;11556;51.194;3.800;2022-08-03T10:30:43;40.30;49.90
22779;DHT22;11556;51.194;3.800;2022-08-03T10:33:14;40.90;49.50
22779;DHT22;11556;51.194;3.800;2022-08-03T10:35:41;40.80;48.90
22779;DHT22;11556;51.194;3.800;2022-08-03T10:38:11;40.70;49.10
22779;DHT22;11556;51.194;3.800;2022-08-03T10:40:40;40.50;48.60
22779;DHT22;11556;51.194;3.800;2022-08-03T10:43:09;40.50;48.50
22779;DHT22;11556;51.194;3.800;2022-08-03T10:45:39;40.50;49.50
22779;DHT22;11556;51.194;3.800;2022-08-03T10:48:06;40.20;49.20
22779;DHT22;11556;51.194;3.800;2022-08-03T10:50:33;40.20;48.90
22779;DHT22;11556;51.194;3.800;2022-08-03T10:53:01;39.20;50.50
22779;DHT22;11556;51.194;3.800;2022-08-03T10:55:36;39.40;50.40
22779;DHT22;11556;51.194;3.800;2022-08-03T11:01:11;40.50;48.90
22779;DHT22;11556;51.194;3.800;2022-08-03T11:06:32;42.10;46.50
22779;DHT22;11556;51.194;3.800;2022-08-03T11:11:36;42.80;45.90
22779;DHT22;11556;51.194;3.800;2022-08-03T11:16:36;42.40;45.40
22779;DHT22;11556;51.194;3.800;2022-08-03T11:19:07;42.30;46.40
22779;DHT22;11556;51.194;3.800;2022-08-03T11:30:10;44.10;43.70
22779;DHT22;11556;51.194;3.800;2022-08-03T11:35:19;43.30;43.60
22779;DHT22;11556;51.194;3.800;2022-08-03T11:48:21;41.70;45.80
22779;DHT22;11556;51.194;3.800;2022-08-03T11:50:47;41.90;45.90
22779;DHT22;11556;51.194;3.800;2022-08-03T11:53:17;42.20;45.50
22779;DHT22;11556;51.194;3.800;2022-08-03T11:55:47;42.20;45.80
22779;DHT22;11556;51.194;3.800;2022-08-03T11:58:21;42.20;44.90
22779;DHT22;11556;51.194;3.800;2022-08-03T12:00:48;41.70;45.20
22779;DHT22;11556;51.194;3.800;2022-08-03T12:03:16;41.90;45.30
22779;DHT22;11556;51.194;3.800;2022-08-03T12:05:52;42.10;44.40
22779;DHT22;11556;51.194;3.800;2022-08-03T12:10:54;43.20;43.10
22779;DHT22;11556;51.194;3.800;2022-08-03T12:13:21;43.30;42.80
22779;DHT22;11556;51.194;3.800;2022-08-03T12:15:55;43.30;42.80
22779;DHT22;11556;51.194;3.800;2022-08-03T12:18:22;43.10;43.10
22779;DHT22;11556;51.194;3.800;2022-08-03T12:20:50;41.90;44.10
22779;DHT22;11556;51.194;3.800;2022-08-03T12:23:17;40.80;46.10
22779;DHT22;11556;51.194;3.800;2022-08-03T12:25:44;40.30;46.30
22779;DHT22;11556;51.194;3.800;2022-08-03T12:30:36;41.00;45.20
22779;DHT22;11556;51.194;3.800;2022-08-03T12:33:53;41.80;44.60
22779;DHT22;11556;51.194;3.800;2022-08-03T12:36:19;42.50;43.80
22779;DHT22;11556;51.194;3.800;2022-08-03T12:39:03;42.80;43.10
22779;DHT22;11556;51.194;3.800;2022-08-03T12:41:37;43.40;43.70
22779;DHT22;11556;51.194;3.800;2022-08-03T12:44:04;43.60;42.90
22779;DHT22;11556;51.194;3.800;2022-08-03T12:46:40;43.90;42.10
22779;DHT22;11556;51.194;3.800;2022-08-03T12:49:07;44.40;42.30
22779;DHT22;11556;51.194;3.800;2022-08-03T12:54:04;45.00;40.10
22779;DHT22;11556;51.194;3.800;2022-08-03T12:56:30;44.90;39.60
22779;DHT22;11556;51.194;3.800;2022-08-03T12:58:55;43.50;41.40
22779;DHT22;11556;51.194;3.800;2022-08-03T13:01:21;42.10;43.30
22779;DHT22;11556;51.194;3.800;2022-08-03T13:03:50;40.20;45.10
22779;DHT22;11556;51.194;3.800;2022-08-03T13:06:24;39.40;46.70
22779;DHT22;11556;51.194;3.800;2022-08-03T13:09:04;39.60;47.00
22779;DHT22;11556;51.194;3.800;2022-08-03T13:11:30;40.10;46.00
22779;DHT22;11556;51.194;3.800;2022-08-03T13:13:56;40.00;45.30
22779;DHT22;11556;51.194;3.800;2022-08-03T13:16:22;39.20;46.60
22779;DHT22;11556;51.194;3.800;2022-08-03T13:18:48;39.00;47.40
22779;DHT22;11556;51.194;3.800;2022-08-03T13:21:18;39.60;46.70
22779;DHT22;11556;51.194;3.800;2022-08-03T13:23:44;40.30;45.30
22779;DHT22;11556;51.194;3.800;2022-08-03T13:26:10;40.20;46.30
22779;DHT22;11556;51.194;3.800;2022-08-03T13:28:37;40.30;45.70
22779;DHT22;11556;51.194;3.800;2022-08-03T13:31:03;40.70;45.00
22779;DHT22;11556;51.194;3.800;2022-08-03T13:33:29;40.50;44.40
22779;DHT22;11556;51.194;3.800;2022-08-03T13:35:55;40.10;45.50
22779;DHT22;11556;51.194;3.800;2022-08-03T13:38:21;40.90;45.20
22779;DHT22;11556;51.194;3.800;2022-08-03T13:40:46;42.00;43.20
22779;DHT22;11556;51.194;3.800;2022-08-03T13:43:12;42.50;42.60
22779;DHT22;11556;51.194;3.800;2022-08-03T13:45:37;40.30;44.70
22779;DHT22;11556;51.194;3.800;2022-08-03T13:48:03;39.60;46.00
22779;DHT22;11556;51.194;3.800;2022-08-03T13:50:29;39.90;44.90
22779;DHT22;11556;51.194;3.800;2022-08-03T13:52:58;40.30;45.00
22779;DHT22;11556;51.194;3.800;2022-08-03T13:55:24;40.10;45.10
22779;DHT22;11556;51.194;3.800;2022-08-03T13:57:50;39.20;45.50
22779;DHT22;11556;51.194;3.800;2022-08-03T14:00:16;38.60;46.50
22779;DHT22;11556;51.194;3.800;2022-08-03T14:02:42;38.40;47.60
22779;DHT22;11556;51.194;3.800;2022-08-03T14:05:08;38.50;47.60
22779;DHT22;11556;51.194;3.800;2022-08-03T14:07:34;38.70;47.30
22779;DHT22;11556;51.194;3.800;2022-08-03T14:09:59;39.20;46.90
22779;DHT22;11556;51.194;3.800;2022-08-03T14:12:26;39.60;45.70
22779;DHT22;11556;51.194;3.800;2022-08-03T14:14:52;39.80;45.50
22779;DHT22;11556;51.194;3.800;2022-08-03T14:17:18;39.70;45.60
22779;DHT22;11556;51.194;3.800;2022-08-03T14:19:43;39.20;45.00
22779;DHT22;11556;51.194;3.800;2022-08-03T14:22:09;38.20;48.00
22779;DHT22;11556;51.194;3.800;2022-08-03T14:24:35;38.20;47.90
22779;DHT22;11556;51.194;3.800;2022-08-03T14:27:00;38.90;47.20
22779;DHT22;11556;51.194;3.800;2022-08-03T14:29:26;39.70;46.40
22779;DHT22;11556;51.194;3.800;2022-08-03T14:31:51;40.60;46.60
22779;DHT22;11556;51.194;3.800;2022-08-03T14:34:17;41.00;43.90
22779;DHT22;11556;51.194;3.800;2022-08-03T14:36:42;41.00;43.80
22779;DHT22;11556;51.194;3.800;2022-08-03T14:39:08;41.50;43.00
22779;DHT22;11556;51.194;3.800;2022-08-03T14:41:34;41.50;42.80
22779;DHT22;11556;51.194;3.800;2022-08-03T14:43:59;41.20;42.70
22779;DHT22;11556;51.194;3.800;2022-08-03T14:46:25;41.00;43.70
22779;DHT22;11556;51.194;3.800;2022-08-03T14:48:50;41.40;43.10
22779;DHT22;11556;51.194;3.800;2022-08-03T14:51:16;42.00;42.90
22779;DHT22;11556;51.194;3.800;2022-08-03T14:53:42;42.30;42.10
22779;DHT22;11556;51.194;3.800;2022-08-03T14:56:07;42.50;41.50
22779;DHT22;11556;51.194;3.800;2022-08-03T14:58:33;42.20;41.50
22779;DHT22;11556;51.194;3.800;2022-08-03T15:00:58;41.30;42.50
22779;DHT22;11556;51.194;3.800;2022-08-03T15:03:25;41.20;43.00
22779;DHT22;11556;51.194;3.800;2022-08-03T15:05:55;41.30;43.80
22779;DHT22;11556;51.194;3.800;2022-08-03T15:08:22;41.30;42.30
22779;DHT22;11556;51.194;3.800;2022-08-03T15:10:48;41.30;43.20
22779;DHT22;11556;51.194;3.800;2022-08-03T15:13:15;41.20;42.60
22779;DHT22;11556;51.194;3.800;2022-08-03T15:15:41;40.40;43.80
22779;DHT22;11556;51.194;3.800;2022-08-03T15:18:07;40.10;43.40
22779;DHT22;11556;51.194;3.800;2022-08-03T15:20:33;40.00;44.80
22779;DHT22;11556;51.194;3.800;2022-08-03T15:22:58;40.00;43.90
22779;DHT22;11556;51.194;3.800;2022-08-03T15:25:24;39.90;48.00
22779;DHT22;11556;51.194;3.800;2022-08-03T15:27:50;39.50;49.40
22779;DHT22;11556;51.194;3.800;2022-08-03T15:30:16;38.40;51.30
22779;DHT22;11556;51.194;3.800;2022-08-03T15:32:41;37.00;53.40
22779;DHT22;11556;51.194;3.800;2022-08-03T15:35:07;36.10;55.70
22779;DHT22;11556;51.194;3.800;2022-08-03T15:37:33;35.80;56.60
22779;DHT22;11556;51.194;3.800;2022-08-03T15:39:58;35.20;57.70
22779;DHT22;11556;51.194;3.800;2022-08-03T15:42:24;34.70;58.90
22779;DHT22;11556;51.194;3.800;2022-08-03T15:44:49;34.30;59.30
22779;DHT22;11556;51.194;3.800;2022-08-03T15:47:15;33.90;60.70
22779;DHT22;11556;51.194;3.800;2022-08-03T15:49:41;33.50;62.20
22779;DHT22;11556;51.194;3.800;2022-08-03T15:52:06;33.00;64.10
22779;DHT22;11556;51.194;3.800;2022-08-03T15:54:32;32.80;64.80
22779;DHT22;11556;51.194;3.800;2022-08-03T15:56:57;32.70;64.70
22779;DHT22;11556;51.194;3.800;2022-08-03T15:59:23;32.60;64.50
22779;DHT22;11556;51.194;3.800;2022-08-03T16:01:49;32.60;65.10
22779;DHT22;11556;51.194;3.800;2022-08-03T16:04:14;32.60;65.80
22779;DHT22;11556;51.194;3.800;2022-08-03T16:06:40;32.80;66.20
22779;DHT22;11556;51.194;3.800;2022-08-03T16:09:07;32.80;65.30
22779;DHT22;11556;51.194;3.800;2022-08-03T16:11:33;32.80;66.30
22779;DHT22;11556;51.194;3.800;2022-08-03T16:13:58;33.10;65.60
22779;DHT22;11556;51.194;3.800;2022-08-03T16:16:24;33.30;65.00
22779;DHT22;11556;51.194;3.800;2022-08-03T16:18:50;33.40;64.30
22779;DHT22;11556;51.194;3.800;2022-08-03T16:21:15;33.50;65.30
22779;DHT22;11556;51.194;3.800;2022-08-03T16:23:41;33.20;64.10
22779;DHT22;11556;51.194;3.800;2022-08-03T16:26:07;32.90;65.30